Time;durP1;ratioP1;P1;durP2;ratioP2;P2;SDS_P1;SDS_P2;PMS_P1;PMS_P2;Temp;Humidity;BMP_temperature;BMP_pressure;BME280_temperature;BME280_humidity;BME280_pressure;Samples;Min_cycle;Max_cycle;Signal;HPM_P1;HPM_P2
2022/05/16 00:02:37;;;;;;;5.22;2.95;;;;;;;17.70;58.89;99630.97;5054414;28;20112;-64
2022/05/16 00:05:35;;;;;;;7.40;2.90;;;;;;;17.71;58.51;99629.22;5054579;28;20573;-64
2022/05/16 00:08:31;;;;;;;4.50;2.80;;;;;;;17.69;58.70;99624.00;5053580;28;20086;-64
2022/05/16 00:11:23;;;;;;;6.28;3.17;;;;;;;17.69;58.72;99633.63;5053954;28;20107;-64
2022/05/16 00:14:07;;;;;;;4.55;2.70;;;;;;;17.69;58.96;99628.38;5054349;28;20048;-63
2022/05/16 00:16:54;;;;;;;6.43;2.80;;;;;;;17.68;58.84;99629.25;5054229;28;20610;-65
2022/05/16 00:19:51;;;;;;;6.85;2.90;;;;;;;17.69;58.85;99623.13;5055293;28;20071;-64
2022/05/16 00:22:52;;;;;;;4.70;3.00;;;;;;;17.68;58.79;99622.28;5054298;28;20126;-63
2022/05/16 00:25:50;;;;;;;4.53;2.60;;;;;;;17.68;58.70;99618.78;5053799;28;20048;-64
2022/05/16 00:28:48;;;;;;;3.67;2.58;;;;;;;17.68;58.79;99619.66;5054163;28;20044;-64
2022/05/16 00:31:44;;;;;;;5.95;2.75;;;;;;;17.67;58.60;99620.56;5054140;28;20607;-64
2022/05/16 00:34:37;;;;;;;6.63;3.15;;;;;;;17.67;58.71;99619.72;5053300;28;20052;-64
2022/05/16 00:37:23;;;;;;;4.38;2.63;;;;;;;17.66;58.43;99616.22;5054425;28;20403;-63
2022/05/16 00:40:09;;;;;;;7.30;3.38;;;;;;;17.65;58.66;99623.22;5054259;28;20051;-63
2022/05/16 00:43:23;;;;;;;6.60;3.00;;;;;;;17.64;58.80;99618.00;5053055;28;20518;-64
2022/05/16 00:46:22;;;;;;;6.65;3.40;;;;;;;17.65;58.69;99624.97;5053533;28;20051;-65
2022/05/16 00:49:23;;;;;;;4.40;2.75;;;;;;;17.63;59.01;99632.88;5053403;28;20063;-64
2022/05/16 00:52:34;;;;;;;4.75;2.60;;;;;;;17.59;58.72;99639.03;5054069;28;20147;-64
2022/05/16 00:55:32;;;;;;;5.53;3.00;;;;;;;17.53;58.46;99648.78;5052989;28;20101;-65
2022/05/16 00:58:19;;;;;;;5.20;3.10;;;;;;;17.50;58.62;99662.81;5054075;28;20151;-63
2022/05/16 01:01:03;;;;;;;6.95;2.97;;;;;;;17.50;58.51;99653.19;5053178;28;20052;-64
2022/05/16 01:07:05;;;;;;;7.25;3.30;;;;;;;17.43;58.47;99648.97;5054056;28;20084;-64
2022/05/16 01:10:03;;;;;;;6.72;2.80;;;;;;;17.41;58.53;99648.13;5052474;28;20137;-64
2022/05/16 01:13:00;;;;;;;5.05;2.65;;;;;;;17.42;58.31;99631.53;5052995;28;20060;-65
2022/05/16 01:15:59;;;;;;;11.25;3.30;;;;;;;17.44;58.47;99640.19;5052926;28;20451;-64
2022/05/16 01:18:55;;;;;;;4.80;3.20;;;;;;;17.44;58.55;99632.31;5053093;28;20118;-64
2022/05/16 01:21:50;;;;;;;5.00;3.03;;;;;;;17.45;58.41;99634.06;5053600;28;20115;-64
2022/05/16 01:24:34;;;;;;;5.07;2.95;;;;;;;17.44;58.39;99634.94;5053345;28;20055;-64
2022/05/16 01:27:47;;;;;;;3.55;2.70;;;;;;;17.43;58.14;99630.63;5052264;28;20087;-64
2022/05/16 01:30:48;;;;;;;6.05;2.60;;;;;;;17.44;58.22;99631.47;5052933;28;20148;-65
2022/05/16 01:33:46;;;;;;;9.25;3.10;;;;;;;17.43;58.03;99630.63;5052197;28;20074;-65
2022/05/16 01:36:47;;;;;;;5.85;2.85;;;;;;;17.43;58.16;99629.75;5053599;28;20084;-63
2022/05/16 01:39:43;;;;;;;6.50;2.92;;;;;;;17.44;58.15;99634.09;5053118;28;20052;-64
2022/05/16 01:42:38;;;;;;;6.72;3.50;;;;;;;17.44;58.29;99634.09;5052461;28;20187;-64
2022/05/16 01:45:27;;;;;;;6.20;3.00;;;;;;;17.43;58.09;99637.59;5053144;28;20039;-63
2022/05/16 01:48:14;;;;;;;5.20;2.35;;;;;;;17.41;58.10;99626.28;5052347;28;20067;-65
2022/05/16 01:51:01;;;;;;;5.18;2.70;;;;;;;17.44;58.17;99628.88;5052542;28;20558;-64
2022/05/16 01:53:45;;;;;;;5.60;2.95;;;;;;;17.42;58.07;99617.53;5052871;28;20071;-64
2022/05/16 01:56:46;;;;;;;5.07;2.92;;;;;;;17.43;57.92;99619.28;5052294;28;20103;-63
2022/05/16 01:59:44;;;;;;;6.25;3.00;;;;;;;17.41;58.31;99619.31;5051992;28;20052;-64
2022/05/16 02:02:44;;;;;;;7.03;2.70;;;;;;;17.40;58.21;99622.81;5051919;28;20124;-64
2022/05/16 02:05:43;;;;;;;6.55;3.25;;;;;;;17.41;58.07;99618.44;5052449;28;20040;-64
2022/05/16 02:08:37;;;;;;;4.47;2.50;;;;;;;17.39;57.97;99614.97;5052388;28;20400;-63
2022/05/16 02:11:38;;;;;;;6.57;2.85;;;;;;;17.38;57.92;99616.75;5052980;28;20041;-64
2022/05/16 02:14:25;;;;;;;4.97;2.90;;;;;;;17.38;57.93;99610.63;5052042;28;20541;-63
2022/05/16 02:17:10;;;;;;;7.85;2.97;;;;;;;17.39;58.00;99607.13;5056341;28;20074;-64
2022/05/16 02:20:08;;;;;;;4.15;2.88;;;;;;;17.39;57.95;99614.97;5057179;28;20066;-64
2022/05/16 02:26:32;;;;;;;7.38;2.83;;;;;;;17.38;58.03;99608.00;5056702;28;20064;-64
2022/05/16 02:29:30;;;;;;;6.00;2.63;;;;;;;17.37;57.72;99608.91;5055411;28;20048;-65
2022/05/16 02:32:28;;;;;;;6.22;3.40;;;;;;;17.38;58.07;99610.63;5056466;28;20136;-65
2022/05/16 02:35:26;;;;;;;8.38;2.78;;;;;;;17.39;57.90;99604.50;5056574;28;20052;-65
2022/05/16 02:38:12;;;;;;;7.03;2.75;;;;;;;17.37;58.01;99601.03;5056293;28;20052;-64
2022/05/16 02:41:10;;;;;;;3.65;2.40;;;;;;;17.34;57.96;99607.22;5055300;28;20573;-65
2022/05/16 02:44:07;;;;;;;7.07;2.92;;;;;;;17.34;58.02;99607.22;5055224;28;20067;-65
2022/05/16 02:47:05;;;;;;;5.57;2.88;;;;;;;17.32;58.05;99609.88;5055268;28;20102;-64
2022/05/16 02:50:04;;;;;;;6.43;2.83;;;;;;;17.32;57.89;99599.41;5056324;28;20056;-64
2022/05/16 02:53:07;;;;;;;5.45;2.65;;;;;;;17.33;57.72;99587.16;5055413;28;20055;-64
2022/05/16 02:56:05;;;;;;;4.07;2.85;;;;;;;17.32;57.93;99591.53;5054750;28;20469;-64
2022/05/16 02:58:57;;;;;;;4.72;3.20;;;;;;;17.31;57.91;99597.66;5056422;28;20055;-64
2022/05/16 03:01:41;;;;;;;6.15;3.05;;;;;;;17.32;57.97;99594.16;5055664;28;20175;-63
2022/05/16 03:04:25;;;;;;;6.90;3.22;;;;;;;17.34;57.99;99599.34;5056129;28;20079;-64
2022/05/16 03:07:09;;;;;;;4.50;2.63;;;;;;;17.34;58.03;99596.75;5055492;28;20047;-65
2022/05/16 03:10:04;;;;;;;4.68;3.08;;;;;;;17.32;57.88;99598.50;5054982;28;20052;-64
2022/05/16 03:13:02;;;;;;;8.02;3.20;;;;;;;17.32;58.14;99599.41;5055696;28;20128;-64
2022/05/16 03:16:01;;;;;;;6.35;3.28;;;;;;;17.32;57.97;99599.41;5055766;28;20407;-63
2022/05/16 03:19:00;;;;;;;6.25;3.15;;;;;;;17.34;58.29;99604.59;5055626;28;20543;-64
2022/05/16 03:21:58;;;;;;;4.90;2.92;;;;;;;17.33;58.08;99606.38;5055682;28;20056;-64
2022/05/16 03:24:57;;;;;;;5.07;3.10;;;;;;;17.33;58.14;99597.63;5055538;28;20103;-64
2022/05/16 03:27:44;;;;;;;5.55;3.17;;;;;;;17.33;58.16;99595.88;5054015;28;20416;-63
2022/05/16 03:30:28;;;;;;;5.68;2.90;;;;;;;17.34;58.34;99608.09;5055233;28;20064;-64
2022/05/16 03:33:12;;;;;;;11.38;3.58;;;;;;;17.34;58.27;99599.34;5055314;28;20052;-63
2022/05/16 03:36:14;;;;;;;7.63;3.03;;;;;;;17.35;58.19;99598.47;5054904;28;20094;-65
2022/05/16 03:43:40;;;;;;;5.22;3.13;;;;;;;17.34;58.36;99605.47;5131635;27;20140;-63
2022/05/16 03:46:25;;;;;;;4.60;2.75;;;;;;;17.37;58.31;99594.06;5131626;28;20047;-64
2022/05/16 03:49:21;;;;;;;8.50;3.35;;;;;;;17.35;58.27;99601.97;5131820;28;20038;-64
2022/05/16 03:52:22;;;;;;;5.60;3.60;;;;;;;17.34;58.31;99601.97;5116223;28;20054;-64
2022/05/16 03:55:20;;;;;;;6.05;2.88;;;;;;;17.33;58.49;99602.88;5131827;28;20070;-64
2022/05/16 03:58:16;;;;;;;7.20;3.83;;;;;;;17.32;58.42;99602.00;5116256;28;20043;-63
2022/05/16 04:01:09;;;;;;;8.05;2.80;;;;;;;17.33;58.41;99606.38;5115826;28;20127;-64
2022/05/16 04:04:06;;;;;;;7.78;3.50;;;;;;;17.35;58.40;99601.97;5131520;28;20050;-63
2022/05/16 04:06:56;;;;;;;4.90;2.65;;;;;;;17.34;58.76;99595.00;5116244;28;20521;-64
2022/05/16 04:09:40;;;;;;;5.47;2.80;;;;;;;17.35;58.62;99601.97;5131744;28;20096;-63
2022/05/16 04:12:24;;;;;;;5.78;3.13;;;;;;;17.36;58.68;99600.19;5131163;28;20041;-64
2022/05/16 04:15:17;;;;;;;10.88;3.38;;;;;;;17.39;58.86;99599.25;5130861;28;20050;-64
2022/05/16 04:18:18;;;;;;;4.63;2.85;;;;;;;17.40;58.61;99601.88;5131316;28;20122;-64
2022/05/16 04:21:13;;;;;;;5.57;3.03;;;;;;;17.41;58.65;99590.50;5115589;28;20109;-65
2022/05/16 04:24:09;;;;;;;5.05;2.85;;;;;;;17.44;58.55;99592.19;5130954;28;20050;-64
2022/05/16 04:27:08;;;;;;;8.13;2.80;;;;;;;17.44;58.83;99590.41;5115705;28;20046;-64
2022/05/16 04:30:06;;;;;;;7.45;3.17;;;;;;;17.45;58.66;99597.38;5130744;28;20047;-65
2022/05/16 04:33:04;;;;;;;5.40;3.20;;;;;;;17.45;58.85;99594.75;5115231;28;20092;-65
2022/05/16 04:35:48;;;;;;;4.95;2.78;;;;;;;17.45;58.81;99594.75;5115316;28;20184;-64
2022/05/16 04:38:49;;;;;;;10.88;3.60;;;;;;;17.47;58.63;99605.22;5130965;28;20050;-63
2022/05/16 04:44:58;;;;;;;4.88;3.22;;;;;;;17.46;58.83;99604.34;5131001;28;20055;-64
2022/05/16 04:47:54;;;;;;;7.55;3.33;;;;;;;17.46;58.46;99609.59;5130617;28;20054;-64
2022/05/16 04:50:49;;;;;;;5.85;3.20;;;;;;;17.48;58.89;99620.06;5130790;28;20051;-63
2022/05/16 04:53:47;;;;;;;11.77;3.53;;;;;;;17.46;59.06;99616.59;5108506;28;20051;-63
2022/05/16 04:56:34;;;;;;;8.30;3.50;;;;;;;17.43;58.99;99625.41;5116624;28;20127;-63
2022/05/16 04:59:19;;;;;;;5.50;3.20;;;;;;;17.44;58.93;99623.63;5101251;28;20105;-64
2022/05/16 05:02:18;;;;;;;4.60;2.83;;;;;;;17.45;59.02;99623.59;5101709;28;20505;-64
2022/05/16 05:05:17;;;;;;;6.40;3.88;;;;;;;17.44;58.96;99645.44;5101508;28;20058;-63
2022/05/16 05:08:13;;;;;;;7.85;3.60;;;;;;;17.42;59.34;99635.88;5101174;28;20062;-63
2022/05/16 05:14:34;;;;;;;7.40;3.83;;;;;;;17.41;59.20;99645.50;5116304;28;20126;-64
2022/05/16 05:17:30;;;;;;;14.40;3.67;;;;;;;17.41;59.27;99649.88;5101004;28;20470;-64
2022/05/16 05:20:21;;;;;;;8.70;3.63;;;;;;;17.41;59.17;99649.88;5100876;28;20516;-64
2022/05/16 05:23:05;;;;;;;9.50;3.92;;;;;;;17.40;59.22;99656.00;5116103;28;20185;-64
2022/05/16 05:25:58;;;;;;;;;;;;;;;17.39;59.43;99662.13;5117050;28;20084;-64
2022/05/16 05:28:56;;;;;;;4.68;3.45;;;;;;;17.35;59.46;99659.59;5100633;28;19960;-63
2022/05/16 05:31:54;;;;;;;7.28;3.70;;;;;;;17.36;59.34;99649.97;5100917;28;20095;-63
2022/05/16 05:34:50;;;;;;;7.65;3.25;;;;;;;17.38;59.57;99663.00;5101006;28;20092;-64
2022/05/16 05:37:39;;;;;;;5.35;3.13;;;;;;;17.38;59.55;99661.28;5115925;28;20046;-63
2022/05/16 05:40:28;;;;;;;9.63;2.95;;;;;;;17.38;59.62;99669.13;5100345;28;20047;-64
2022/05/16 05:43:27;;;;;;;10.63;3.25;;;;;;;17.36;59.76;99673.53;5115189;28;20116;-64
2022/05/16 05:46:13;;;;;;;5.97;2.65;;;;;;;17.37;59.89;99687.47;5116032;28;20042;-63
2022/05/16 05:48:57;;;;;;;5.28;3.40;;;;;;;17.38;59.95;99691.81;5100606;28;20104;-63
2022/05/16 05:51:59;;;;;;;7.75;3.13;;;;;;;17.37;59.88;99695.34;5115831;28;20043;-63
2022/05/16 05:54:57;;;;;;;7.57;3.20;;;;;;;17.37;59.81;99697.94;5100472;28;20070;-64
2022/05/16 05:57:52;;;;;;;4.38;2.90;;;;;;;17.39;59.90;99699.66;5100218;28;20046;-64
2022/05/16 06:00:48;;;;;;;4.93;3.00;;;;;;;17.39;59.91;99688.31;5100097;28;20126;-64
2022/05/16 06:03:43;;;;;;;4.43;2.97;;;;;;;17.39;59.97;99702.28;5128879;27;20100;-64
2022/05/16 06:06:40;;;;;;;6.03;3.78;;;;;;;17.40;60.10;99703.16;5127787;27;20089;-64
2022/05/16 06:09:27;;;;;;;6.13;3.20;;;;;;;17.40;60.21;99698.78;5115342;28;20409;-63
2022/05/16 06:12:12;;;;;;;5.32;3.05;;;;;;;17.40;60.08;99706.66;5099943;28;20627;-63
2022/05/16 06:15:06;;;;;;;5.18;2.95;;;;;;;17.42;60.17;99703.97;5115601;28;20505;-64
2022/05/16 06:17:58;;;;;;;;;;;;;;;17.42;60.23;99702.25;5100441;28;20051;-64
2022/05/16 06:20:54;;;;;;;5.20;3.05;;;;;;;17.41;60.32;99699.63;5100042;28;19960;-64
2022/05/16 06:23:49;;;;;;;7.07;2.90;;;;;;;17.40;60.40;99700.53;5099538;28;20039;-64
2022/05/16 06:26:42;;;;;;;8.02;3.17;;;;;;;17.41;60.49;99707.50;5099736;28;20050;-65
2022/05/16 06:29:31;;;;;;;8.32;3.30;;;;;;;17.45;60.41;99698.69;5115314;28;20135;-64
2022/05/16 06:32:29;;;;;;;5.93;3.20;;;;;;;17.44;60.08;99707.44;5099566;28;20116;-64
2022/05/16 06:35:26;;;;;;;8.60;3.67;;;;;;;17.46;60.45;99708.28;5114992;28;20426;-63
2022/05/16 06:38:16;;;;;;;9.57;3.30;;;;;;;17.47;60.62;99715.25;5114756;28;20101;-63
2022/05/16 06:41:09;;;;;;;11.15;3.03;;;;;;;17.46;60.49;99709.13;5099904;28;20067;-64
2022/05/16 06:44:01;;;;;;;7.00;3.60;;;;;;;17.48;60.58;99709.13;5114813;28;20089;-63
2022/05/16 06:46:57;;;;;;;6.60;3.42;;;;;;;17.47;60.55;99707.41;5114641;28;20092;-63
2022/05/16 06:49:47;;;;;;;7.63;3.65;;;;;;;17.47;60.79;99708.25;5114889;28;20050;-64
2022/05/16 06:52:39;;;;;;;8.82;3.38;;;;;;;17.49;60.86;99713.47;5098749;28;20430;-63
2022/05/16 06:55:32;;;;;;;8.52;3.20;;;;;;;17.48;60.85;99723.06;5114546;28;20460;-64
2022/05/16 06:58:19;;;;;;;7.13;3.60;;;;;;;17.49;61.14;99721.34;5114402;28;20093;-65
2022/05/16 07:01:04;;;;;;;8.00;3.42;;;;;;;17.50;61.18;99723.06;5114554;28;20597;-64
2022/05/16 07:03:56;;;;;;;5.57;3.10;;;;;;;17.53;61.14;99720.38;5099377;28;20069;-63
2022/05/16 07:06:48;;;;;;;6.07;3.00;;;;;;;17.55;61.13;99728.22;5113938;28;20131;-64
2022/05/16 07:09:46;;;;;;;7.35;3.63;;;;;;;17.57;61.40;99729.06;5098902;28;20046;-64
2022/05/16 07:12:36;;;;;;;5.57;3.58;;;;;;;17.60;61.29;99726.34;5098938;28;20426;-64
2022/05/16 07:15:23;;;;;;;6.20;3.17;;;;;;;17.63;61.34;99726.31;5099235;28;20046;-63
2022/05/16 07:18:19;;;;;;;9.05;3.88;;;;;;;17.66;61.45;99728.88;5098962;28;20055;-64
2022/05/16 07:21:14;;;;;;;5.10;3.13;;;;;;;17.70;61.43;99735.81;5114137;28;20047;-64
2022/05/16 07:24:01;;;;;;;8.45;3.50;;;;;;;17.70;61.48;99738.44;5098506;28;20043;-63
2022/05/16 07:29:58;;;;;;;7.28;3.72;;;;;;;17.75;61.57;99740.94;5113635;28;20414;-64
2022/05/16 07:32:57;;;;;;;4.78;2.80;;;;;;;17.77;61.43;99742.63;5113965;28;20051;-64
2022/05/16 07:35:55;;;;;;;6.85;3.38;;;;;;;17.77;61.51;99745.25;5098545;28;20088;-64
2022/05/16 07:38:50;;;;;;;9.50;3.50;;;;;;;17.81;61.54;99749.56;5113690;28;20050;-64
2022/05/16 07:41:43;;;;;;;6.03;3.10;;;;;;;17.84;61.73;99746.00;5098369;28;20046;-64
2022/05/16 07:44:39;;;;;;;6.18;3.05;;;;;;;17.88;61.62;99744.22;5098416;28;20085;-63
2022/05/16 07:47:35;;;;;;;7.88;3.13;;;;;;;17.89;61.29;99746.81;5098796;28;20042;-64
2022/05/16 07:50:20;;;;;;;4.20;2.58;;;;;;;17.91;61.46;99744.13;5098337;28;20453;-63
2022/05/16 07:53:14;;;;;;;8.98;3.30;;;;;;;17.94;61.54;99742.34;5113567;28;20112;-64
2022/05/16 07:56:09;;;;;;;10.07;3.03;;;;;;;17.96;61.75;99748.44;5098610;28;20532;-64
2022/05/16 07:58:59;;;;;;;;;;;;;;;17.98;61.35;99758.06;5099153;28;20054;-63
2022/05/16 08:01:54;;;;;;;8.48;3.10;;;;;;;17.97;61.69;99751.91;5098362;28;19922;-63
2022/05/16 08:04:47;;;;;;;7.78;3.20;;;;;;;18.02;61.46;99763.19;5098422;28;20631;-64
2022/05/16 08:07:31;;;;;;;4.93;2.75;;;;;;;18.05;61.47;99759.66;5098088;28;20145;-63
2022/05/16 08:10:29;;;;;;;7.55;3.13;;;;;;;18.06;61.62;99764.00;5113698;28;20042;-64
2022/05/16 08:13:22;;;;;;;6.45;3.00;;;;;;;18.05;61.63;99765.78;5113860;28;20092;-64
2022/05/16 08:16:18;;;;;;;4.85;2.95;;;;;;;18.04;61.61;99769.28;5113662;28;20047;-64
2022/05/16 08:19:13;;;;;;;5.20;3.03;;;;;;;18.05;61.82;99767.50;5113941;28;20120;-63
2022/05/16 08:22:08;;;;;;;6.38;3.17;;;;;;;18.04;61.76;99771.91;5097897;28;20410;-64
2022/05/16 08:25:04;;;;;;;5.03;2.60;;;;;;;18.06;61.84;99779.72;5126836;28;20047;-63
2022/05/16 08:27:59;;;;;;;9.65;3.25;;;;;;;18.05;61.85;99780.63;5113189;28;20043;-64
2022/05/16 08:30:52;;;;;;;5.20;3.25;;;;;;;18.06;61.87;99782.34;5101396;28;20101;-63
2022/05/16 08:33:42;;;;;;;3.25;2.90;;;;;;;18.06;62.02;99792.84;5131730;27;20050;-63
2022/05/16 08:42:53;;;;;;;6.80;3.70;;;;;;;18.05;61.85;99805.09;5116659;28;20485;-63
2022/05/16 08:45:51;;;;;;;3.47;2.65;;;;;;;18.05;62.15;99810.34;5102119;28;20050;-64
2022/05/16 08:48:46;;;;;;;5.65;3.60;;;;;;;18.07;62.40;99812.94;5116708;28;20422;-63
2022/05/16 08:51:41;;;;;;;8.70;3.80;;;;;;;18.08;62.48;99819.91;5101437;28;20058;-64
2022/05/16 08:54:31;;;;;;;;;;;;;;;18.08;62.06;99825.16;5117691;28;20058;-65
2022/05/16 08:57:32;;;;;;;19.73;3.38;;;;;;;18.07;62.54;99820.78;5101795;28;20381;-64
2022/05/16 09:00:47;;;;;;;6.53;3.70;;;;;;;18.08;62.68;99825.16;5117146;28;20187;-63
2022/05/16 09:04:09;;;;;;;6.77;2.80;;;;;;;18.08;62.15;99826.00;5101024;28;20525;-64
2022/05/16 09:07:04;;;;;;;9.45;3.85;;;;;;;18.11;62.59;99831.19;5101059;28;20051;-64
2022/05/16 09:10:01;;;;;;;7.18;3.88;;;;;;;18.13;62.64;99833.81;5101345;28;20501;-64
2022/05/16 09:13:27;;;;;;;6.72;4.10;;;;;;;18.17;62.57;99840.69;5101404;28;20050;-63
2022/05/16 09:16:29;;;;;;;6.13;3.50;;;;;;;18.21;62.58;99842.38;5080483;28;20051;-64
2022/05/16 09:19:26;;;;;;;8.20;3.30;;;;;;;18.25;62.50;99848.44;5101139;28;20096;-64
2022/05/16 09:22:19;;;;;;;9.05;4.30;;;;;;;18.28;62.54;99842.28;5101197;28;20067;-64
2022/05/16 09:25:18;;;;;;;10.57;3.88;;;;;;;18.30;62.55;99837.84;5116089;28;20452;-65
2022/05/16 09:31:35;;;;;;;5.93;3.92;;;;;;;18.33;62.61;99859.66;5116079;28;20054;-64
2022/05/16 09:34:27;;;;;;;7.57;4.18;;;;;;;18.34;62.62;99858.75;5101052;28;20069;-64
2022/05/16 09:37:20;;;;;;;7.28;4.35;;;;;;;18.39;62.71;99866.53;5100879;28;20578;-64
2022/05/16 09:40:07;;;;;;;14.77;3.63;;;;;;;18.39;62.82;99867.38;5115937;28;20042;-64
2022/05/16 09:42:54;;;;;;;8.00;3.70;;;;;;;18.41;62.75;99873.47;5115350;28;20082;-64
2022/05/16 09:45:47;;;;;;;9.10;4.95;;;;;;;18.42;63.03;99871.72;5115572;28;20176;-64
2022/05/16 09:48:31;;;;;;;14.07;5.15;;;;;;;18.45;62.97;99883.91;5100728;28;20050;-63
2022/05/16 09:51:20;;;;;;;9.27;4.88;;;;;;;18.45;62.90;99881.28;5115677;28;20096;-64
2022/05/16 09:54:18;;;;;;;6.35;4.75;;;;;;;18.45;63.18;99892.63;5100735;28;20149;-64
2022/05/16 09:57:25;;;;;;;14.32;5.72;;;;;;;18.50;62.94;99898.69;5100390;28;20112;-64
2022/05/16 10:00:25;;;;;;;10.98;5.20;;;;;;;18.55;63.39;99904.72;5100619;28;20398;-64
2022/05/16 10:03:47;;;;;;;17.20;5.00;;;;;;;18.55;63.14;99916.94;5115367;28;20042;-64
2022/05/16 10:06:41;;;;;;;8.02;4.90;;;;;;;18.54;63.31;99918.72;5115396;28;20043;-63
2022/05/16 10:09:34;;;;;;;11.75;5.72;;;;;;;18.53;63.49;99931.88;5115801;28;20046;-64
2022/05/16 10:12:24;;;;;;;20.30;6.32;;;;;;;18.54;63.51;99928.34;5115504;28;20047;-64
2022/05/16 10:15:14;;;;;;;9.82;6.60;;;;;;;18.55;63.59;99938.81;5099835;28;20112;-63
2022/05/16 10:18:12;;;;;;;9.52;5.32;;;;;;;18.53;63.46;99945.84;5100072;28;20066;-64
2022/05/16 10:21:15;;;;;;;9.10;6.05;;;;;;;18.52;63.49;99946.75;5099763;28;20073;-64
2022/05/16 10:24:08;;;;;;;9.23;6.25;;;;;;;18.51;63.53;99954.66;5099830;28;20042;-64
2022/05/16 10:27:02;;;;;;;9.63;6.13;;;;;;;18.51;63.66;99959.91;5099806;28;20103;-63
2022/05/16 10:29:48;;;;;;;8.77;6.70;;;;;;;18.51;63.63;99967.78;5099645;28;20062;-63
2022/05/16 10:35:58;;;;;;;11.65;6.60;;;;;;;18.52;63.87;99967.75;5114813;28;20049;-64
2022/05/16 10:39:09;;;;;;;11.10;7.38;;;;;;;18.50;63.94;99974.78;5099459;28;20135;-63
2022/05/16 10:42:08;;;;;;;10.00;6.70;;;;;;;18.48;64.05;99991.44;5114387;28;20062;-63
2022/05/16 10:45:17;;;;;;;13.93;6.40;;;;;;;18.44;63.86;99982.78;5114805;28;20046;-63
2022/05/16 10:48:21;;;;;;;10.63;6.82;;;;;;;18.45;64.03;99992.34;5114827;28;20136;-64
2022/05/16 10:51:14;;;;;;;10.85;6.57;;;;;;;18.43;64.29;99999.41;5098575;28;20127;-64
2022/05/16 10:54:08;;;;;;;9.98;7.20;;;;;;;18.42;64.04;99997.66;5099544;28;20054;-64
2022/05/16 10:57:08;;;;;;;11.38;6.43;;;;;;;18.42;64.17;100002.91;5099132;28;20467;-64
2022/05/16 11:00:10;;;;;;;9.88;7.50;;;;;;;18.44;64.53;99995.00;5114512;28;20540;-64
2022/05/16 11:03:36;;;;;;;14.40;7.65;;;;;;;18.44;64.43;100002.88;5099078;28;20046;-64
2022/05/16 11:06:30;;;;;;;10.90;7.95;;;;;;;18.44;64.76;99997.63;5098942;28;20044;-64
2022/05/16 11:09:58;;;;;;;8.55;6.60;;;;;;;18.45;64.55;100000.22;5099230;28;20047;-64
2022/05/16 11:12:48;;;;;;;9.07;7.45;;;;;;;18.45;64.67;100004.59;5114321;28;20452;-64
2022/05/16 11:15:56;;;;;;;11.82;7.65;;;;;;;18.46;64.38;100007.19;5099186;28;20093;-63
2022/05/16 11:19:07;;;;;;;13.20;8.55;;;;;;;18.45;64.94;100015.97;5114178;28;20073;-63
2022/05/16 11:22:03;;;;;;;13.13;9.10;;;;;;;18.43;64.70;100007.28;5098616;28;20062;-63
2022/05/16 11:25:02;;;;;;;15.48;9.05;;;;;;;18.42;64.83;100016.03;5114011;28;20043;-63
2022/05/16 11:28:24;;;;;;;12.27;9.82;;;;;;;18.42;64.98;100016.03;5098090;28;20054;-63
2022/05/16 11:31:19;;;;;;;11.73;8.65;;;;;;;18.41;64.97;100016.94;5098690;28;20054;-64
2022/05/16 11:34:19;;;;;;;15.23;8.85;;;;;;;18.42;65.00;100023.91;5114241;28;20043;-64
2022/05/16 11:37:36;;;;;;;12.43;8.40;;;;;;;18.41;64.91;100027.41;5098420;28;20051;-64
2022/05/16 11:40:41;;;;;;;9.43;8.30;;;;;;;18.39;65.08;100035.28;5113575;28;20112;-63
2022/05/16 11:43:34;;;;;;;13.30;8.90;;;;;;;18.36;65.13;100040.63;5097936;28;20112;-62
2022/05/16 11:46:27;;;;;;;11.65;8.15;;;;;;;18.36;65.36;100045.88;5098865;28;20109;-64
2022/05/16 11:50:04;;;;;;;11.50;8.07;;;;;;;18.36;65.08;100035.38;5098854;28;20084;-65
2022/05/16 11:53:11;;;;;;;14.30;7.80;;;;;;;18.34;65.42;100034.53;5098117;28;20053;-63
2022/05/16 12:02:45;;;;;;;12.25;7.97;;;;;;;18.33;65.25;100032.78;5113545;28;20509;-64
2022/05/16 12:05:43;;;;;;;11.75;7.72;;;;;;;18.34;65.41;100044.13;5117810;28;20055;-63
2022/05/16 12:08:49;;;;;;;18.02;8.73;;;;;;;18.34;65.45;100039.78;5118009;28;20395;-64
2022/05/16 12:12:00;;;;;;;14.45;9.10;;;;;;;18.33;65.46;100045.91;5102596;28;20512;-64
2022/05/16 12:15:16;;;;;;;11.60;7.28;;;;;;;18.31;65.19;100045.06;5117312;28;20538;-63
2022/05/16 12:18:33;;;;;;;10.93;7.70;;;;;;;18.29;65.44;100061.72;5101460;28;20081;-64
2022/05/16 12:22:01;;;;;;;14.05;7.65;;;;;;;18.28;65.46;100063.47;5117396;28;20046;-64
2022/05/16 12:25:12;;;;;;;12.10;7.70;;;;;;;18.26;65.56;100070.50;5117595;28;20066;-64
2022/05/16 12:28:21;;;;;;;12.52;8.38;;;;;;;18.25;65.21;100069.63;5117241;28;20050;-64
2022/05/16 12:31:09;;;;;;;11.88;7.60;;;;;;;18.23;65.65;100071.41;5116964;28;20051;-64
2022/05/16 12:33:53;;;;;;;10.68;6.95;;;;;;;18.22;65.66;100069.69;5117429;28;20050;-63
2022/05/16 12:36:45;;;;;;;10.02;6.50;;;;;;;18.23;65.41;100078.41;5117221;28;20563;-64
2022/05/16 12:39:47;;;;;;;12.02;7.65;;;;;;;18.22;65.83;100067.06;5101895;28;20516;-65
2022/05/16 12:43:15;;;;;;;11.80;7.25;;;;;;;18.21;65.18;100077.59;5101278;28;20070;-64
2022/05/16 12:46:37;;;;;;;9.65;7.22;;;;;;;18.21;65.49;100075.81;5101461;28;20529;-64
2022/05/16 12:49:56;;;;;;;14.10;7.43;;;;;;;18.19;65.58;100082.84;5116604;28;20058;-63
2022/05/16 12:52:59;;;;;;;11.18;7.55;;;;;;;18.19;65.87;100080.22;5098381;28;20478;-64
2022/05/16 12:56:08;;;;;;;9.38;7.22;;;;;;;18.19;65.90;100079.34;5101229;28;20092;-64
2022/05/16 12:59:19;;;;;;;11.43;7.68;;;;;;;18.18;65.68;100075.84;5101339;28;20042;-64
2022/05/16 13:02:26;;;;;;;10.38;7.63;;;;;;;18.19;65.65;100080.22;5116936;28;20050;-64
2022/05/16 13:05:26;;;;;;;11.23;7.97;;;;;;;18.20;65.78;100081.94;5101690;28;20444;-64
2022/05/16 13:08:33;;;;;;;13.07;8.60;;;;;;;18.19;65.75;100080.22;5101168;28;20120;-64
2022/05/16 13:11:25;;;;;;;12.18;7.85;;;;;;;18.21;65.83;100077.59;5101582;28;20088;-64
2022/05/16 13:14:58;;;;;;;14.18;7.25;;;;;;;18.22;65.52;100074.03;5100823;28;20051;-64
2022/05/16 13:17:58;;;;;;;7.93;6.95;;;;;;;18.20;65.88;100073.22;5095859;28;20046;-64
2022/05/16 13:20:56;;;;;;;16.90;7.28;;;;;;;18.22;65.79;100074.91;5116608;28;20390;-64
2022/05/16 13:23:46;;;;;;;8.70;6.68;;;;;;;18.22;65.96;100081.91;5115904;28;20039;-63
2022/05/16 13:29:48;;;;;;;11.85;6.93;;;;;;;18.27;66.04;100087.97;5115999;28;20050;-64
2022/05/16 13:32:32;;;;;;;13.10;6.68;;;;;;;18.29;66.11;100083.56;5116375;28;20065;-63
2022/05/16 13:35:36;;;;;;;13.32;7.45;;;;;;;18.28;66.24;100089.69;5116416;28;20050;-64
2022/05/16 13:38:38;;;;;;;12.00;7.20;;;;;;;18.29;66.06;100087.97;5115952;28;20039;-64
2022/05/16 13:41:30;;;;;;;20.10;7.72;;;;;;;18.30;66.19;100093.16;5115736;28;20120;-64
2022/05/16 13:44:23;;;;;;;11.60;7.05;;;;;;;18.31;66.00;100088.78;5100354;28;20046;-63
2022/05/16 13:47:22;;;;;;;9.07;6.15;;;;;;;18.33;66.06;100097.50;5100699;28;20097;-64
2022/05/16 13:50:29;;;;;;;8.15;5.93;;;;;;;18.33;66.11;100097.50;5100746;28;20048;-63
2022/05/16 13:53:22;;;;;;;8.82;6.25;;;;;;;18.31;65.74;100094.03;5100549;28;20094;-64
2022/05/16 13:56:07;;;;;;;13.95;7.20;;;;;;;18.30;66.08;100103.66;5100297;28;20043;-64
2022/05/16 13:59:01;;;;;;;12.18;5.88;;;;;;;18.27;66.10;100087.97;5115336;28;20528;-67
2022/05/16 14:02:09;;;;;;;10.32;5.47;;;;;;;18.28;65.85;100100.19;5115751;28;20092;-63
2022/05/16 14:05:14;;;;;;;14.35;6.25;;;;;;;18.25;65.89;100101.13;5100307;28;20127;-64
2022/05/16 14:08:06;;;;;;;8.35;5.60;;;;;;;18.28;65.86;100097.56;5115269;28;20050;-63
2022/05/16 14:10:56;;;;;;;8.20;5.43;;;;;;;18.29;65.98;100095.81;5115475;28;20074;-64
2022/05/16 14:13:51;;;;;;;12.65;5.70;;;;;;;18.29;65.99;100098.44;5099769;28;20093;-64
2022/05/16 14:16:44;;;;;;;7.80;5.47;;;;;;;18.29;66.05;100106.31;5100328;28;20081;-64
2022/05/16 14:19:45;;;;;;;11.23;6.03;;;;;;;18.29;65.85;100101.94;5100132;28;20103;-64
2022/05/16 14:22:32;;;;;;;10.45;5.47;;;;;;;18.26;65.77;100094.09;5115030;28;20100;-64
2022/05/16 14:25:31;;;;;;;8.82;5.75;;;;;;;18.24;65.96;100093.25;5115036;28;20166;-64
2022/05/16 14:28:36;;;;;;;10.32;5.43;;;;;;;18.22;65.69;100095.91;5114993;28;20078;-63
2022/05/16 14:31:31;;;;;;;7.97;5.22;;;;;;;18.24;65.83;100096.75;5099751;28;20042;-63